Vealmoor, Texas
Current Conditions -  °F | °C
As of 9:15 PM on Monday 26 Jan 2015 (Local Time) from KBPG Reporting Station
Clear Clear  
Wind Chill: 43°   Ceiling: Unl
Heat Index: 46°   Visibility: 10mi
Dew Point: 33°   Wind: 6mph
Humidity: 60%   Direction: 150°SSE
Pressure: 30.25"   Gusts: NA
Location:  32.2854°N, 101.449°W
Report Text: KBPG 270315Z AUTO 15005KT 10SM CLR 08/01 A3025 RMK AO2 T00790006
Loading
Personal Weather Stations






























Interactive Weather Map New forecast layout! Learn more

10-Day Weather Forecast

Advertisements
Track Severe Weather on mobile